デトロイト/メトロポリタン の空港の天気 - METARとTAF

デトロイト・メトロポリタン・ウェイン・カウンティ空港 ( KDTW / DTW ) - アメリカ ミシガン州Romulus(デトロイト近郊)
飛行場実況気象(Metar)
観測時間12/01 17:53 EST (12/01 22:53 UTC)
風向・風速西 5m/s
視程10km以上
天気現象
全天を覆う雲 雲底高度 1370m
気温1.1℃
湿度69%
気圧1011.1hPa
METARKDTW 012253Z 28010KT 10SM OVC045 01/M04 A2984 RMK AO2 SLP111 T00111039
過去の天気等 Google飛行場航空写真 Wunderground天気予報

過去48時間のMETAR

飛行場予報(TAF)
発表時間: 12/01 18:20 EST (12/01 23:20 UTC)
予報対象時間: 1日19時 EST ~ 3日1時 EST
風向・風速西北西 5m/s
視程10km以上
全天の4割程度の雲 雲底高度 1070m
全天を覆う雲 雲底高度 1220m
1日21時 EST から
風向・風速西北西 5m/s
視程10km以上
なし
2日11時 EST から
風向・風速西 6m/s 瞬間風速 10m/s
視程10km以上
なし
2日17時 EST から
風向・風速西北西 6m/s 瞬間風速 10m/s
視程10km以上
なし
KDTW 012320Z 0200/0306 29010KT P6SM SCT035 OVC040
FM020200 29010KT P6SM SKC
FM021600 28011G20KT P6SM SKC
FM022200 29012G20KT P6SM SKC